Time;durP1;ratioP1;P1;durP2;ratioP2;P2;SDS_P1;SDS_P2;PMS_P1;PMS_P2;Temp;Humidity;BMP_temperature;BMP_pressure;BME280_temperature;BME280_humidity;BME280_pressure;Samples;Min_cycle;Max_cycle;Signal;HPM_P1;HPM_P2
2024/01/10 00:00:43;;;;;;;19.10;10.80;;;-6.40;90.20;;;;;;5133248;28;20248;-73
2024/01/10 00:03:09;;;;;;;19.97;11.40;;;-6.30;90.30;;;;;;5133464;28;20286;-73
2024/01/10 00:05:36;;;;;;;17.90;10.50;;;-6.30;90.10;;;;;;5133395;28;20252;-73
2024/01/10 00:08:03;;;;;;;24.13;12.47;;;-6.40;90.10;;;;;;5133428;28;20198;-74
2024/01/10 00:10:29;;;;;;;22.67;11.77;;;-6.50;90.50;;;;;;5133395;28;20657;-74
2024/01/10 00:12:57;;;;;;;19.60;10.37;;;-6.40;90.70;;;;;;5133169;28;20224;-74
2024/01/10 00:15:24;;;;;;;21.93;11.00;;;-6.40;90.90;;;;;;5133445;28;20202;-74
2024/01/10 00:17:51;;;;;;;23.53;12.23;;;-6.40;91.00;;;;;;5133057;28;20554;-73
2024/01/10 00:20:18;;;;;;;20.47;11.23;;;-6.40;90.90;;;;;;5133460;28;20195;-73
2024/01/10 00:22:44;;;;;;;22.93;11.73;;;-6.40;90.90;;;;;;5133401;28;20267;-73
2024/01/10 00:25:11;;;;;;;20.60;11.10;;;-6.40;90.90;;;;;;5133287;28;20251;-72
2024/01/10 00:27:38;;;;;;;20.33;11.30;;;-6.50;90.90;;;;;;5133318;28;20199;-73
2024/01/10 00:30:08;;;;;;;21.73;11.60;;;-6.40;91.40;;;;;;5133379;28;20595;-73
2024/01/10 00:32:35;;;;;;;20.53;11.03;;;-6.50;91.20;;;;;;5133365;28;20206;-73
2024/01/10 00:35:01;;;;;;;27.50;11.60;;;-6.40;91.40;;;;;;5133182;28;20199;-73
2024/01/10 00:37:28;;;;;;;21.37;11.60;;;-6.50;91.30;;;;;;5132894;28;20297;-74
2024/01/10 00:39:55;;;;;;;21.40;10.93;;;-6.40;91.70;;;;;;5132782;28;20590;-73
2024/01/10 00:42:22;;;;;;;20.40;11.43;;;-6.50;91.60;;;;;;5134863;27;20199;-73
2024/01/10 00:44:48;;;;;;;17.50;11.20;;;-6.40;92.20;;;;;;5136581;27;20234;-73
2024/01/10 00:47:16;;;;;;;19.00;10.93;;;-6.40;92.00;;;;;;5136784;27;20191;-73
2024/01/10 00:49:43;;;;;;;21.87;11.57;;;-6.40;92.10;;;;;;5136661;27;20306;-73
2024/01/10 00:52:09;;;;;;;22.97;11.13;;;-6.50;91.90;;;;;;5136690;27;20263;-73
2024/01/10 00:54:36;;;;;;;22.90;11.80;;;-6.50;92.20;;;;;;5136575;27;20248;-73
2024/01/10 00:57:03;;;;;;;22.67;11.10;;;-6.40;92.00;;;;;;5136766;27;20248;-73
2024/01/10 00:59:30;;;;;;;20.27;10.83;;;-6.30;92.00;;;;;;5136525;27;20672;-73
2024/01/10 01:01:56;;;;;;;22.10;11.10;;;-6.30;91.90;;;;;;5136504;27;20195;-73
2024/01/10 01:04:24;;;;;;;20.93;11.77;;;-6.30;92.20;;;;;;5136455;27;20307;-73
2024/01/10 01:06:51;;;;;;;20.40;11.27;;;-6.30;92.30;;;;;;5136398;27;20591;-73
2024/01/10 01:09:17;;;;;;;18.07;10.27;;;-6.30;92.50;;;;;;5136195;27;20195;-73
2024/01/10 01:11:44;;;;;;;19.70;11.17;;;-6.30;92.50;;;;;;5136203;27;20649;-73
2024/01/10 01:14:11;;;;;;;20.37;10.47;;;-6.30;92.60;;;;;;5136420;27;20657;-73
2024/01/10 01:16:38;;;;;;;20.20;11.23;;;-6.30;92.60;;;;;;5136082;27;20654;-73
2024/01/10 01:19:05;;;;;;;19.33;11.40;;;-6.30;92.80;;;;;;5136147;27;20276;-73
2024/01/10 01:21:33;;;;;;;20.10;11.43;;;-6.30;92.80;;;;;;5136095;27;20199;-73
2024/01/10 01:23:59;;;;;;;20.83;10.73;;;-6.20;92.70;;;;;;5136027;27;20244;-73
2024/01/10 01:26:26;;;;;;;23.93;11.97;;;-6.20;92.70;;;;;;5135850;27;20650;-73
2024/01/10 01:28:52;;;;;;;25.20;11.13;;;-6.20;93.10;;;;;;5136024;27;20247;-73
2024/01/10 01:31:19;;;;;;;21.70;10.20;;;-6.10;93.50;;;;;;5135984;27;20198;-73
2024/01/10 01:33:46;;;;;;;21.63;10.77;;;-6.10;93.70;;;;;;5135814;27;20190;-73
2024/01/10 01:36:12;;;;;;;17.80;11.00;;;-6.10;94.00;;;;;;5135686;27;20195;-73
2024/01/10 01:38:40;;;;;;;22.63;11.67;;;-6.10;93.90;;;;;;5135517;27;20219;-73
2024/01/10 01:41:07;;;;;;;24.90;12.43;;;-6.10;94.30;;;;;;5135760;27;20192;-73
2024/01/10 01:43:35;;;;;;;24.43;11.53;;;-6.00;93.80;;;;;;5135534;27;20250;-73
2024/01/10 01:46:03;;;;;;;21.43;11.53;;;-6.00;93.70;;;;;;5135468;27;20617;-73
2024/01/10 01:48:30;;;;;;;22.30;11.17;;;-6.00;93.80;;;;;;5135552;27;20195;-73
2024/01/10 01:51:00;;;;;;;22.40;12.43;;;-6.00;93.80;;;;;;5135328;27;20654;-73
2024/01/10 01:53:28;;;;;;;25.97;13.00;;;-6.00;93.90;;;;;;5135520;27;20195;-73
2024/01/10 01:55:56;;;;;;;20.20;11.07;;;-6.00;93.90;;;;;;5135396;27;20542;-73
2024/01/10 01:58:24;;;;;;;23.23;11.07;;;-6.00;93.90;;;;;;5135531;27;20604;-73
2024/01/10 02:00:52;;;;;;;22.30;11.07;;;-6.00;93.80;;;;;;5135104;27;20203;-72
2024/01/10 02:03:19;;;;;;;20.53;11.83;;;-6.00;93.70;;;;;;5135161;27;20199;-73
2024/01/10 02:05:46;;;;;;;22.90;12.53;;;-6.00;93.70;;;;;;5135045;27;20199;-72
2024/01/10 02:08:13;;;;;;;20.20;10.60;;;-6.00;93.80;;;;;;5135320;27;20285;-73
2024/01/10 02:10:40;;;;;;;23.77;11.67;;;-5.90;93.70;;;;;;5135294;27;20191;-73
2024/01/10 02:13:10;;;;;;;21.17;11.00;;;-6.00;93.70;;;;;;5135091;27;20199;-73
2024/01/10 02:15:38;;;;;;;24.53;11.50;;;-6.00;93.50;;;;;;5135237;27;20208;-73
2024/01/10 02:18:06;;;;;;;22.73;11.90;;;-6.00;93.60;;;;;;5134771;27;20199;-73
2024/01/10 02:20:34;;;;;;;25.53;12.47;;;-6.00;93.50;;;;;;5135308;27;20221;-73
2024/01/10 02:23:00;;;;;;;22.37;10.83;;;-5.90;93.50;;;;;;5135207;27;20207;-73
2024/01/10 02:25:28;;;;;;;20.10;10.77;;;-6.00;93.60;;;;;;5134930;27;20225;-73
2024/01/10 02:27:55;;;;;;;20.77;11.30;;;-5.90;93.40;;;;;;5134914;27;20594;-73
2024/01/10 02:30:22;;;;;;;22.47;11.80;;;-5.90;93.50;;;;;;5134656;27;20661;-73
2024/01/10 02:32:48;;;;;;;21.27;11.13;;;-5.90;93.70;;;;;;5134595;27;20232;-73
2024/01/10 02:35:15;;;;;;;27.83;11.40;;;-5.90;94.10;;;;;;5134735;27;20199;-73
2024/01/10 02:37:42;;;;;;;21.73;10.60;;;-6.00;94.20;;;;;;5134657;27;20642;-73
2024/01/10 02:40:09;;;;;;;19.40;11.47;;;-6.00;94.80;;;;;;5134492;27;20227;-73
2024/01/10 02:42:37;;;;;;;20.50;11.80;;;-5.90;95.00;;;;;;5134424;27;20243;-73
2024/01/10 02:45:05;;;;;;;21.57;12.43;;;-5.90;94.90;;;;;;5134258;27;20693;-72
2024/01/10 02:47:31;;;;;;;26.93;12.50;;;-5.80;94.60;;;;;;5134593;27;20610;-72
2024/01/10 02:49:58;;;;;;;19.03;10.97;;;-5.80;94.80;;;;;;5134629;27;20296;-72
2024/01/10 02:52:26;;;;;;;20.17;10.33;;;-5.80;94.30;;;;;;5134379;27;20672;-72
2024/01/10 02:54:53;;;;;;;22.13;11.80;;;-5.80;94.50;;;;;;5134355;27;20244;-73
2024/01/10 02:57:20;;;;;;;22.17;11.33;;;-5.80;94.60;;;;;;5134565;27;20277;-73
2024/01/10 02:59:47;;;;;;;23.00;11.93;;;-5.80;94.80;;;;;;5134016;27;20271;-73
2024/01/10 03:02:14;;;;;;;21.67;11.53;;;-5.80;94.90;;;;;;5134527;27;20249;-74
2024/01/10 03:04:41;;;;;;;22.40;11.73;;;-5.80;95.10;;;;;;5133822;27;20240;-73
2024/01/10 03:07:07;;;;;;;19.70;11.20;;;-5.80;95.00;;;;;;5134402;27;20229;-73
2024/01/10 03:09:34;;;;;;;23.33;12.13;;;-5.80;95.30;;;;;;5134248;27;20247;-74
2024/01/10 03:12:01;;;;;;;22.07;12.17;;;-5.80;95.50;;;;;;5134087;27;20199;-73
2024/01/10 03:14:27;;;;;;;21.23;11.10;;;-5.80;95.40;;;;;;5133968;27;20565;-74
2024/01/10 03:16:55;;;;;;;24.20;12.17;;;-5.80;95.90;;;;;;5134394;27;20195;-74
2024/01/10 03:19:22;;;;;;;24.70;12.03;;;-5.90;95.60;;;;;;5133992;27;20226;-74
2024/01/10 03:21:48;;;;;;;24.43;12.60;;;-5.90;95.80;;;;;;5133984;27;20232;-74
2024/01/10 03:24:15;;;;;;;24.10;12.00;;;-5.90;95.90;;;;;;5133959;27;20195;-73
2024/01/10 03:26:42;;;;;;;22.30;11.47;;;-5.90;95.90;;;;;;5133779;27;20251;-74
2024/01/10 03:29:09;;;;;;;22.97;12.10;;;-5.90;96.10;;;;;;5133568;27;20236;-73
2024/01/10 03:31:36;;;;;;;21.17;12.23;;;-5.80;96.30;;;;;;5133667;27;20645;-74
2024/01/10 03:34:04;;;;;;;25.47;12.23;;;-5.90;96.20;;;;;;5133675;27;20195;-73
2024/01/10 03:36:31;;;;;;;24.37;11.93;;;-5.90;96.30;;;;;;5133669;27;20195;-72
2024/01/10 03:38:57;;;;;;;25.17;11.90;;;-5.90;96.10;;;;;;5133539;27;20226;-72
2024/01/10 03:41:24;;;;;;;23.73;11.90;;;-6.00;96.20;;;;;;5133528;27;20231;-73
2024/01/10 03:43:51;;;;;;;22.70;11.87;;;-6.00;96.30;;;;;;5133471;27;20702;-73
2024/01/10 03:46:18;;;;;;;22.30;11.50;;;-6.00;96.40;;;;;;5133633;28;20286;-73
2024/01/10 03:48:48;;;;;;;21.37;12.07;;;-6.00;96.70;;;;;;5133742;28;20263;-73
2024/01/10 03:51:17;;;;;;;22.13;11.57;;;-6.00;96.70;;;;;;5133688;28;20290;-73
2024/01/10 03:53:44;;;;;;;25.47;12.80;;;-6.10;96.40;;;;;;5133430;28;20201;-73
2024/01/10 03:56:11;;;;;;;23.83;12.90;;;-6.10;96.30;;;;;;5133169;28;20194;-73
2024/01/10 03:58:37;;;;;;;21.53;12.03;;;-6.10;96.50;;;;;;5133442;28;20199;-73
2024/01/10 04:01:07;;;;;;;27.13;12.13;;;-6.10;96.80;;;;;;5133685;28;20221;-72
2024/01/10 04:03:33;;;;;;;24.03;11.73;;;-6.10;96.80;;;;;;5133077;28;20735;-73
2024/01/10 04:06:00;;;;;;;26.60;12.90;;;-6.20;96.90;;;;;;5133146;28;20202;-73
2024/01/10 04:08:28;;;;;;;24.60;12.47;;;-6.10;97.20;;;;;;5133128;28;20195;-72
2024/01/10 04:10:55;;;;;;;22.40;11.80;;;-6.20;97.30;;;;;;5133453;28;20195;-73
2024/01/10 04:13:21;;;;;;;22.93;12.83;;;-6.20;97.60;;;;;;5133403;28;20194;-72
2024/01/10 04:15:48;;;;;;;22.67;11.63;;;-6.20;97.70;;;;;;5132998;27;20323;-73
2024/01/10 04:18:15;;;;;;;24.00;12.33;;;-6.20;97.70;;;;;;5137012;27;20195;-73
2024/01/10 04:20:42;;;;;;;25.67;13.07;;;-6.30;97.90;;;;;;5137117;27;20226;-72
2024/01/10 04:23:09;;;;;;;24.87;12.23;;;-6.30;98.40;;;;;;5137118;27;20226;-73
2024/01/10 04:25:37;;;;;;;24.10;11.67;;;-6.30;98.30;;;;;;5137274;27;20244;-73
2024/01/10 04:28:04;;;;;;;25.90;12.30;;;-6.40;98.50;;;;;;5137488;27;20195;-74
2024/01/10 04:30:30;;;;;;;22.97;12.80;;;-6.40;98.60;;;;;;5137041;27;20199;-73
2024/01/10 04:32:57;;;;;;;22.83;12.17;;;-6.40;99.10;;;;;;5136940;27;20191;-72
2024/01/10 04:35:23;;;;;;;22.67;12.17;;;-6.40;99.30;;;;;;5136859;27;20535;-73
2024/01/10 04:37:50;;;;;;;21.17;11.50;;;-6.40;99.40;;;;;;5136662;27;20198;-72
2024/01/10 04:40:17;;;;;;;24.47;12.13;;;-6.40;99.50;;;;;;5136907;27;20230;-73
2024/01/10 04:42:45;;;;;;;22.00;12.00;;;-6.50;99.90;;;;;;5136632;27;20194;-73
2024/01/10 04:45:13;;;;;;;24.43;12.20;;;-6.50;99.90;;;;;;5136995;27;20239;-72
2024/01/10 04:47:39;;;;;;;23.13;12.77;;;-6.50;99.90;;;;;;5136766;27;20194;-72
2024/01/10 04:50:07;;;;;;;19.80;11.77;;;-6.50;99.90;;;;;;5136552;27;20218;-73
2024/01/10 04:52:33;;;;;;;24.67;12.43;;;-6.50;99.90;;;;;;5136817;27;20191;-73
2024/01/10 04:55:01;;;;;;;25.13;12.73;;;-6.50;99.90;;;;;;5136701;27;20195;-72
2024/01/10 04:57:28;;;;;;;23.13;11.87;;;-6.60;99.90;;;;;;5136585;27;20225;-73
2024/01/10 04:59:55;;;;;;;25.57;11.97;;;-6.60;99.90;;;;;;5136561;27;20218;-73
2024/01/10 05:02:21;;;;;;;22.40;12.53;;;-6.60;99.90;;;;;;5136480;27;20339;-72
2024/01/10 05:04:49;;;;;;;23.57;12.17;;;-6.60;99.90;;;;;;5136380;27;20585;-73
2024/01/10 05:07:16;;;;;;;23.57;12.23;;;-6.60;99.90;;;;;;5136441;27;20198;-73
2024/01/10 05:09:43;;;;;;;24.97;12.67;;;-6.60;99.90;;;;;;5136540;27;20195;-72
2024/01/10 05:12:09;;;;;;;23.57;13.13;;;-6.60;99.90;;;;;;5136375;27;20194;-73
2024/01/10 05:14:36;;;;;;;26.37;13.33;;;-6.60;99.90;;;;;;5136163;27;20705;-73
2024/01/10 05:17:04;;;;;;;27.67;12.97;;;-6.60;99.90;;;;;;5136125;27;20195;-73
2024/01/10 05:19:31;;;;;;;24.53;13.33;;;-6.60;99.90;;;;;;5135969;27;20222;-73
2024/01/10 05:21:58;;;;;;;25.57;13.53;;;-6.60;99.90;;;;;;5136109;27;20195;-73
2024/01/10 05:24:24;;;;;;;25.90;13.67;;;-6.60;99.90;;;;;;5136422;27;20226;-73
2024/01/10 05:26:52;;;;;;;22.50;13.20;;;-6.60;99.90;;;;;;5135912;27;20260;-73
2024/01/10 05:29:19;;;;;;;23.20;13.27;;;-6.70;99.90;;;;;;5135698;27;20198;-73
2024/01/10 05:31:46;;;;;;;24.90;13.33;;;-6.70;99.90;;;;;;5136065;27;20202;-73
2024/01/10 05:34:14;;;;;;;22.87;12.73;;;-6.70;99.90;;;;;;5136413;27;20285;-73
2024/01/10 05:36:40;;;;;;;27.13;13.90;;;-6.60;99.90;;;;;;5135966;27;20228;-73
2024/01/10 05:39:07;;;;;;;22.17;12.13;;;-6.70;99.90;;;;;;5135804;27;20191;-73
2024/01/10 05:41:34;;;;;;;25.63;12.57;;;-6.70;99.90;;;;;;5135803;27;20538;-74
2024/01/10 05:44:00;;;;;;;26.70;13.93;;;-6.60;99.90;;;;;;5135491;27;20218;-73
2024/01/10 05:46:28;;;;;;;24.40;12.97;;;-6.60;99.90;;;;;;5135469;27;20245;-73
2024/01/10 05:48:54;;;;;;;25.03;12.97;;;-6.60;99.90;;;;;;5135721;27;20199;-74
2024/01/10 05:51:22;;;;;;;26.67;13.53;;;-6.60;99.90;;;;;;5135584;27;20234;-73
2024/01/10 05:53:49;;;;;;;23.50;13.63;;;-6.60;99.90;;;;;;5135495;27;20231;-73
2024/01/10 05:56:16;;;;;;;24.23;13.23;;;-6.60;99.90;;;;;;5135075;27;20642;-74
2024/01/10 05:58:42;;;;;;;25.10;13.37;;;-6.60;99.90;;;;;;5135499;27;20278;-73
2024/01/10 06:01:09;;;;;;;23.67;13.53;;;-6.60;99.90;;;;;;5135165;27;20226;-74
2024/01/10 06:03:36;;;;;;;31.50;14.27;;;-6.60;99.90;;;;;;5135516;27;20654;-73
2024/01/10 06:06:04;;;;;;;25.27;13.57;;;-6.60;99.90;;;;;;5135456;27;20199;-73
2024/01/10 06:08:32;;;;;;;26.63;13.63;;;-6.50;99.90;;;;;;5135329;27;20197;-73
2024/01/10 06:10:58;;;;;;;27.60;13.80;;;-6.50;99.90;;;;;;5135328;27;20271;-73
2024/01/10 06:13:25;;;;;;;25.67;13.60;;;-6.50;99.90;;;;;;5135034;27;20229;-74
2024/01/10 06:15:52;;;;;;;28.90;14.03;;;-6.50;99.90;;;;;;5135272;27;20252;-74
2024/01/10 06:18:19;;;;;;;27.93;13.57;;;-6.50;99.90;;;;;;5135284;27;20197;-73
2024/01/10 06:20:45;;;;;;;25.63;13.90;;;-6.50;99.90;;;;;;5135100;27;20254;-74
2024/01/10 06:23:12;;;;;;;31.50;16.00;;;-6.50;99.90;;;;;;5134885;27;20646;-73
2024/01/10 06:25:40;;;;;;;25.90;14.37;;;-6.50;99.90;;;;;;5134945;27;20199;-73
2024/01/10 06:28:07;;;;;;;30.87;15.83;;;-6.50;99.90;;;;;;5134492;27;20206;-73
2024/01/10 06:30:35;;;;;;;25.90;13.47;;;-6.50;99.90;;;;;;5134738;27;20702;-73
2024/01/10 06:33:02;;;;;;;25.37;13.43;;;-6.50;99.90;;;;;;5134949;27;20195;-73
2024/01/10 06:35:29;;;;;;;29.97;15.33;;;-6.50;99.90;;;;;;5134643;27;20289;-73
2024/01/10 06:37:56;;;;;;;30.10;14.77;;;-6.50;99.90;;;;;;5134516;27;20263;-73
2024/01/10 06:40:22;;;;;;;27.57;15.23;;;-6.50;99.90;;;;;;5133573;27;20283;-73
2024/01/10 06:42:50;;;;;;;35.10;15.63;;;-6.40;99.90;;;;;;5134115;27;20550;-73
2024/01/10 06:45:17;;;;;;;29.33;14.77;;;-6.50;99.90;;;;;;5134632;27;20195;-73
2024/01/10 06:47:43;;;;;;;28.90;14.43;;;-6.40;99.90;;;;;;5134511;27;20240;-73
2024/01/10 06:50:11;;;;;;;33.17;15.07;;;-6.40;99.90;;;;;;5134413;27;20678;-73
2024/01/10 06:52:38;;;;;;;29.50;14.07;;;-6.40;99.90;;;;;;5134421;27;20197;-73
2024/01/10 06:55:05;;;;;;;28.43;14.23;;;-6.40;99.90;;;;;;5134266;27;20282;-72
2024/01/10 06:57:32;;;;;;;25.70;14.70;;;-6.40;99.90;;;;;;5134366;27;20249;-73
2024/01/10 07:00:02;;;;;;;32.43;15.40;;;-6.40;99.90;;;;;;5134303;27;20279;-73
2024/01/10 07:02:28;;;;;;;29.50;14.70;;;-6.40;99.90;;;;;;5134284;27;20199;-73
2024/01/10 07:04:55;;;;;;;25.20;13.90;;;-6.40;99.90;;;;;;5134208;27;20198;-73
2024/01/10 07:07:22;;;;;;;27.60;14.23;;;-6.40;99.90;;;;;;5134115;27;20199;-73
2024/01/10 07:09:48;;;;;;;28.10;14.03;;;-6.40;99.90;;;;;;5134081;27;20260;-73
2024/01/10 07:12:15;;;;;;;27.67;14.40;;;-6.40;99.90;;;;;;5134252;27;20227;-73
2024/01/10 07:14:42;;;;;;;28.37;14.87;;;-6.40;99.90;;;;;;5133786;27;20199;-73
2024/01/10 07:17:10;;;;;;;26.40;15.13;;;-6.40;99.90;;;;;;5133620;27;20251;-73
2024/01/10 07:19:36;;;;;;;28.10;14.30;;;-6.40;99.90;;;;;;5133621;27;20267;-73
2024/01/10 07:22:03;;;;;;;27.03;13.80;;;-6.50;99.90;;;;;;5133505;27;20236;-73
2024/01/10 07:24:30;;;;;;;28.17;14.33;;;-6.50;99.90;;;;;;5133422;27;20199;-73
2024/01/10 07:26:57;;;;;;;25.30;13.80;;;-6.50;99.90;;;;;;5133409;27;20527;-73
2024/01/10 07:29:24;;;;;;;28.00;13.77;;;-6.50;99.90;;;;;;5133397;27;20754;-73
2024/01/10 07:31:52;;;;;;;26.63;14.83;;;-6.50;99.90;;;;;;5133178;27;20654;-73
2024/01/10 07:34:21;;;;;;;25.37;14.13;;;-6.40;99.90;;;;;;5133419;27;20290;-73
2024/01/10 07:36:47;;;;;;;27.63;14.20;;;-6.40;99.90;;;;;;5133301;27;20553;-73
2024/01/10 07:39:15;;;;;;;28.50;14.77;;;-6.40;99.90;;;;;;5133444;27;20515;-73
2024/01/10 07:41:42;;;;;;;26.47;14.47;;;-6.30;99.90;;;;;;5133491;27;20222;-72
2024/01/10 07:44:09;;;;;;;25.83;15.03;;;-6.30;99.90;;;;;;5133578;27;20233;-72
2024/01/10 07:46:37;;;;;;;27.37;14.67;;;-6.20;99.90;;;;;;5133578;27;20254;-72
2024/01/10 07:49:04;;;;;;;27.77;15.03;;;-6.30;99.90;;;;;;5133588;28;20289;-73
2024/01/10 07:51:33;;;;;;;26.40;14.37;;;-6.20;99.90;;;;;;5138232;27;20264;-73
2024/01/10 07:54:00;;;;;;;29.73;15.60;;;-6.10;99.90;;;;;;5140312;27;20285;-73
2024/01/10 07:56:26;;;;;;;27.87;15.40;;;-6.10;99.90;;;;;;5140476;27;20198;-72
2024/01/10 07:58:53;;;;;;;30.83;15.27;;;-6.10;99.90;;;;;;5140538;27;20726;-72
2024/01/10 08:01:20;;;;;;;34.93;16.57;;;-5.90;99.90;;;;;;5140275;27;20226;-72
2024/01/10 08:03:46;;;;;;;24.00;13.87;;;-5.90;99.90;;;;;;5140321;27;20203;-73
2024/01/10 08:06:13;;;;;;;27.43;15.00;;;-5.70;99.90;;;;;;5140555;27;20612;-73
2024/01/10 08:08:41;;;;;;;29.73;15.37;;;-5.60;99.90;;;;;;5140423;27;20209;-73
2024/01/10 08:11:08;;;;;;;29.70;15.67;;;-5.50;99.90;;;;;;5140353;27;20256;-73
2024/01/10 08:13:34;;;;;;;30.10;14.90;;;-5.40;99.90;;;;;;5140204;27;20293;-72
2024/01/10 08:16:01;;;;;;;29.60;15.40;;;-5.30;99.90;;;;;;5140213;27;20194;-74
2024/01/10 08:18:28;;;;;;;27.03;15.20;;;-5.40;99.90;;;;;;5140190;27;20591;-74
2024/01/10 08:20:55;;;;;;;28.77;15.27;;;-5.30;99.90;;;;;;5140238;27;20271;-74
2024/01/10 08:23:21;;;;;;;29.60;15.40;;;-5.30;99.90;;;;;;5140142;27;20195;-74
2024/01/10 08:25:50;;;;;;;28.60;16.10;;;-5.20;99.90;;;;;;5140113;27;20195;-74
2024/01/10 08:28:16;;;;;;;29.27;14.97;;;-5.10;99.90;;;;;;5140024;27;20562;-76
2024/01/10 08:30:42;;;;;;;30.67;15.47;;;-5.00;99.90;;;;;;5139671;27;20202;-74
2024/01/10 08:33:09;;;;;;;28.03;15.07;;;-4.90;99.90;;;;;;5140296;27;20281;-75
2024/01/10 08:35:36;;;;;;;27.67;14.87;;;-4.70;99.90;;;;;;5139895;27;20705;-72
2024/01/10 08:38:04;;;;;;;26.40;15.63;;;-4.70;99.90;;;;;;5140017;27;20251;-74
2024/01/10 08:40:31;;;;;;;28.67;15.40;;;-4.50;99.90;;;;;;5139994;27;20218;-74
2024/01/10 08:42:59;;;;;;;26.20;14.33;;;-4.30;99.90;;;;;;5139638;27;20222;-74
2024/01/10 08:45:25;;;;;;;23.90;14.57;;;-4.20;99.90;;;;;;5139445;27;20195;-73
2024/01/10 08:47:53;;;;;;;27.20;14.30;;;-4.10;99.90;;;;;;5140020;27;20190;-75
2024/01/10 08:50:19;;;;;;;27.40;15.30;;;-4.10;99.90;;;;;;5139982;27;20559;-73
2024/01/10 08:52:46;;;;;;;25.23;14.30;;;-4.00;99.90;;;;;;5139634;27;20199;-72
2024/01/10 08:55:12;;;;;;;27.63;14.40;;;-4.00;99.90;;;;;;5139793;27;20239;-73
2024/01/10 08:57:39;;;;;;;26.97;14.27;;;-3.90;99.90;;;;;;5140112;27;20207;-74
2024/01/10 09:00:11;;;;;;;25.67;14.60;;;-3.70;99.90;;;;;;5139815;27;20594;-74
2024/01/10 09:02:38;;;;;;;28.10;15.33;;;-3.40;99.90;;;;;;5137396;27;20672;-75
2024/01/10 09:05:07;;;;;;;25.27;14.10;;;-3.10;99.90;;;;;;5136445;27;20199;-74
2024/01/10 09:07:34;;;;;;;33.10;15.47;;;-2.90;99.90;;;;;;5136638;27;20197;-76
2024/01/10 09:10:01;;;;;;;26.17;14.93;;;-2.50;99.90;;;;;;5136402;27;20528;-76
2024/01/10 09:12:28;;;;;;;27.37;15.57;;;-2.40;99.40;;;;;;5136227;27;20255;-76
2024/01/10 09:14:54;;;;;;;24.57;14.53;;;-2.10;99.60;;;;;;5136403;27;20199;-76
2024/01/10 09:17:22;;;;;;;31.70;15.30;;;-1.80;98.00;;;;;;5136594;27;20199;-74
2024/01/10 09:19:49;;;;;;;28.60;16.57;;;-1.50;97.00;;;;;;5136280;27;20239;-77
2024/01/10 09:22:16;;;;;;;24.27;15.60;;;-1.20;95.90;;;;;;5136190;27;20555;-74
2024/01/10 09:24:42;;;;;;;24.10;15.27;;;-0.90;94.60;;;;;;5135900;27;20195;-74
2024/01/10 09:27:09;;;;;;;26.00;15.37;;;-0.70;93.50;;;;;;5136032;27;20390;-74
2024/01/10 09:29:36;;;;;;;24.73;15.03;;;-0.50;92.70;;;;;;5136199;27;20603;-73
2024/01/10 09:32:03;;;;;;;26.27;16.07;;;-0.40;92.40;;;;;;5121310;27;20201;-74
2024/01/10 09:34:32;;;;;;;23.70;15.93;;;-0.30;91.50;;;;;;5114898;27;20195;-73
2024/01/10 09:36:58;;;;;;;23.80;15.93;;;0.10;91.50;;;;;;5117471;27;20674;-74
2024/01/10 09:39:25;;;;;;;23.37;15.43;;;0.00;90.40;;;;;;5135195;27;20210;-75
2024/01/10 09:41:52;;;;;;;20.77;14.23;;;0.10;89.90;;;;;;5135446;27;20215;-74
2024/01/10 09:44:21;;;;;;;25.77;16.40;;;0.20;89.80;;;;;;5135608;27;20223;-74
2024/01/10 09:46:51;;;;;;;22.17;15.77;;;0.20;88.80;;;;;;5135568;27;20199;-73
2024/01/10 09:49:21;;;;;;;22.67;15.73;;;0.10;88.80;;;;;;5135619;27;20315;-74
2024/01/10 09:51:49;;;;;;;27.70;15.97;;;0.20;89.70;;;;;;5126659;27;20196;-72
2024/01/10 09:54:16;;;;;;;23.97;16.13;;;0.20;90.00;;;;;;5115338;28;20219;-75
2024/01/10 09:56:44;;;;;;;23.13;16.23;;;0.40;89.60;;;;;;5115202;28;20306;-74
2024/01/10 09:59:12;;;;;;;24.87;16.47;;;0.50;88.00;;;;;;5115251;28;20287;-74
2024/01/10 10:01:39;;;;;;;23.30;15.97;;;0.50;87.60;;;;;;5115126;28;20314;-73
2024/01/10 10:04:07;;;;;;;21.10;15.63;;;0.60;87.00;;;;;;5115093;28;20612;-73
2024/01/10 10:06:34;;;;;;;24.47;16.00;;;0.70;86.10;;;;;;5114764;28;20245;-74
2024/01/10 10:09:03;;;;;;;22.83;17.07;;;0.70;85.60;;;;;;5114849;28;20286;-74
2024/01/10 10:11:30;;;;;;;26.07;16.77;;;0.70;86.20;;;;;;5114878;28;20223;-74
2024/01/10 10:13:57;;;;;;;23.97;16.57;;;0.80;85.80;;;;;;5113925;28;20195;-74
2024/01/10 10:16:25;;;;;;;24.17;16.67;;;0.90;84.10;;;;;;5114672;28;20241;-74
2024/01/10 10:18:57;;;;;;;22.37;15.97;;;1.20;83.80;;;;;;5114779;28;20198;-74
2024/01/10 10:21:26;;;;;;;22.17;16.57;;;1.40;82.50;;;;;;5114492;28;20759;-74
2024/01/10 10:24:00;;;;;;;23.53;16.97;;;1.50;82.10;;;;;;5125246;27;20195;-74
2024/01/10 10:26:29;;;;;;;21.23;16.70;;;2.10;81.00;;;;;;5135173;27;20203;-74
2024/01/10 10:28:56;;;;;;;23.07;16.70;;;2.50;79.70;;;;;;5135143;27;20194;-78
2024/01/10 10:31:24;;;;;;;23.80;17.67;;;3.20;76.50;;;;;;5135129;27;20202;-75
2024/01/10 10:33:51;;;;;;;23.27;17.80;;;4.10;74.20;;;;;;5134922;27;20201;-74
2024/01/10 10:36:18;;;;;;;22.57;16.87;;;5.10;69.10;;;;;;5135176;27;20199;-75
2024/01/10 10:38:47;;;;;;;22.87;17.63;;;5.50;65.80;;;;;;5135112;27;20195;-75
2024/01/10 10:41:15;;;;;;;22.03;16.93;;;6.00;61.90;;;;;;5134882;27;20219;-75
2024/01/10 10:43:43;;;;;;;20.43;16.90;;;6.50;58.20;;;;;;5134451;27;20751;-75
2024/01/10 10:46:12;;;;;;;23.30;17.07;;;6.20;55.40;;;;;;5134793;27;20195;-74
2024/01/10 10:48:39;;;;;;;27.53;16.90;;;6.50;54.60;;;;;;5134601;27;20290;-75
2024/01/10 10:51:09;;;;;;;23.00;17.70;;;7.10;53.50;;;;;;5134720;27;20259;-75
2024/01/10 10:53:36;;;;;;;22.40;17.37;;;6.80;54.00;;;;;;5134564;27;20194;-75
2024/01/10 10:56:05;;;;;;;22.80;17.60;;;7.30;52.30;;;;;;5134405;27;20195;-75
2024/01/10 10:58:36;;;;;;;20.90;16.97;;;7.50;51.50;;;;;;5134428;27;20693;-75
2024/01/10 11:01:06;;;;;;;20.83;16.80;;;7.60;49.70;;;;;;5134242;27;20229;-75
2024/01/10 11:03:35;;;;;;;23.43;17.53;;;7.80;48.10;;;;;;5134484;27;20241;-75
2024/01/10 11:06:03;;;;;;;22.43;17.47;;;7.90;47.20;;;;;;5134317;27;20190;-75
2024/01/10 11:08:34;;;;;;;22.03;17.57;;;8.00;46.90;;;;;;5134615;27;20199;-74
2024/01/10 11:11:03;;;;;;;21.77;17.40;;;8.50;45.60;;;;;;5134401;27;20195;-75
2024/01/10 11:13:47;;;;;;;21.35;17.02;;;8.60;45.20;;;;;;5134186;27;20232;-75
2024/01/10 11:16:57;;;;;;;22.35;17.63;;;9.10;43.80;;;;;;5134479;27;20199;-75
2024/01/10 11:19:44;;;;;;;22.83;17.15;;;9.10;43.40;;;;;;5134220;27;20203;-75
2024/01/10 11:22:25;;;;;;;21.67;17.77;;;9.40;41.90;;;;;;5134265;27;20223;-75
2024/01/10 11:24:52;;;;;;;21.90;18.02;;;9.80;39.90;;;;;;5133953;27;20198;-76
2024/01/10 11:27:19;;;;;;;23.60;18.60;;;9.10;39.60;;;;;;5133905;27;20642;-75
2024/01/10 11:29:47;;;;;;;24.02;18.52;;;9.00;40.00;;;;;;5133910;27;20610;-76
2024/01/10 11:32:16;;;;;;;22.73;18.35;;;9.30;39.60;;;;;;5133809;27;20199;-75
2024/01/10 11:34:51;;;;;;;24.45;17.15;;;9.30;39.40;;;;;;5134000;27;20252;-75
2024/01/10 11:37:18;;;;;;;20.67;17.17;;;9.70;39.00;;;;;;5134130;27;20200;-75
2024/01/10 11:39:45;;;;;;;23.00;18.20;;;10.10;37.60;;;;;;5133936;27;20661;-75
2024/01/10 11:42:12;;;;;;;22.00;18.95;;;10.50;37.40;;;;;;5133670;27;20283;-75
2024/01/10 11:44:49;;;;;;;21.10;17.85;;;10.40;36.80;;;;;;5133554;27;20321;-75
2024/01/10 11:47:18;;;;;;;20.13;17.63;;;10.30;36.60;;;;;;5133619;27;20774;-75
2024/01/10 11:49:55;;;;;;;21.92;18.42;;;10.60;35.60;;;;;;5133727;28;20289;-75
2024/01/10 11:52:23;;;;;;;20.75;17.92;;;10.50;35.30;;;;;;5133402;27;20568;-76
2024/01/10 11:54:50;;;;;;;21.98;18.00;;;10.80;35.00;;;;;;5133689;27;20341;-75
2024/01/10 11:57:21;;;;;;;22.10;18.08;;;11.20;34.00;;;;;;5133474;27;20277;-75
2024/01/10 11:59:50;;;;;;;21.05;17.75;;;10.90;33.30;;;;;;5133807;28;20286;-75
2024/01/10 12:02:19;;;;;;;21.35;17.92;;;10.20;33.90;;;;;;5133494;27;20238;-75
2024/01/10 12:04:46;;;;;;;22.33;18.08;;;9.60;35.60;;;;;;5133210;27;20650;-76
2024/01/10 12:07:12;;;;;;;23.10;19.38;;;9.70;35.30;;;;;;5133548;27;20243;-75
2024/01/10 12:09:38;;;;;;;23.48;18.10;;;9.20;36.40;;;;;;5133537;28;20195;-75
2024/01/10 12:12:06;;;;;;;25.80;19.75;;;10.00;35.40;;;;;;5133801;28;20202;-75
2024/01/10 12:14:34;;;;;;;25.48;19.00;;;11.00;35.20;;;;;;5133695;27;20247;-76
2024/01/10 12:17:01;;;;;;;23.50;18.77;;;11.10;33.80;;;;;;5133527;28;20199;-75
2024/01/10 12:19:29;;;;;;;22.23;18.27;;;11.50;33.20;;;;;;5133580;27;20256;-75
2024/01/10 12:21:56;;;;;;;24.90;18.80;;;11.70;32.50;;;;;;5133481;27;20215;-76
2024/01/10 12:24:23;;;;;;;25.00;18.17;;;11.30;32.90;;;;;;5133383;27;20277;-76
2024/01/10 12:26:51;;;;;;;21.00;17.48;;;11.10;32.80;;;;;;5133392;28;20715;-75
2024/01/10 12:29:19;;;;;;;21.27;18.50;;;10.80;32.30;;;;;;5133749;27;20297;-76